Time;durP1;ratioP1;P1;durP2;ratioP2;P2;SDS_P1;SDS_P2;PMS_P1;PMS_P2;Temp;Humidity;BMP_temperature;BMP_pressure;BME280_temperature;BME280_humidity;BME280_pressure;Samples;Min_cycle;Max_cycle;Signal;HPM_P1;HPM_P2
2023/06/09 00:01:35;;;;;;;9.60;6.53;;;14.00;27.50;;;;;;5012519;28;20289;-70
2023/06/09 00:04:06;;;;;;;11.90;7.10;;;13.90;27.90;;;;;;5013149;28;20192;-70
2023/06/09 00:06:33;;;;;;;9.07;7.90;;;13.90;28.10;;;;;;5013163;28;20413;-70
2023/06/09 00:08:58;;;;;;;7.47;6.70;;;13.90;28.40;;;;;;5013367;28;20412;-70
2023/06/09 00:11:25;;;;;;;7.57;6.80;;;13.90;29.00;;;;;;5012943;28;20991;-70
2023/06/09 00:13:51;;;;;;;8.60;6.70;;;13.80;29.10;;;;;;5013337;28;20673;-70
2023/06/09 00:16:16;;;;;;;6.60;5.93;;;13.70;29.40;;;;;;5013457;28;20908;-69
2023/06/09 00:18:43;;;;;;;9.23;7.87;;;13.60;30.80;;;;;;5013317;28;20422;-70
2023/06/09 00:21:10;;;;;;;8.60;7.53;;;13.70;31.50;;;;;;5012125;28;20681;-70
2023/06/09 00:23:35;;;;;;;8.50;6.97;;;13.60;30.90;;;;;;5013045;28;20963;-70
2023/06/09 00:26:02;;;;;;;9.40;8.00;;;13.60;30.30;;;;;;5013084;28;20462;-70
2023/06/09 00:28:27;;;;;;;7.13;6.47;;;13.60;31.10;;;;;;5013061;28;20245;-70
2023/06/09 00:30:53;;;;;;;7.03;6.33;;;13.60;31.00;;;;;;5013005;28;20514;-70
2023/06/09 00:33:18;;;;;;;7.63;6.73;;;13.50;31.20;;;;;;5012655;28;20203;-70
2023/06/09 00:35:44;;;;;;;8.90;7.43;;;13.50;31.70;;;;;;5013073;28;20227;-70
2023/06/09 00:38:09;;;;;;;8.83;7.47;;;13.50;31.60;;;;;;5012761;28;20189;-70
2023/06/09 00:40:35;;;;;;;7.93;7.17;;;13.50;34.40;;;;;;5012773;28;20210;-70
2023/06/09 00:43:00;;;;;;;8.80;7.93;;;13.50;40.30;;;;;;5012456;28;20180;-70
2023/06/09 00:45:26;;;;;;;10.70;7.10;;;13.40;37.00;;;;;;5012701;28;20206;-69
2023/06/09 00:47:52;;;;;;;8.00;6.90;;;13.40;36.20;;;;;;5012283;28;20172;-70
2023/06/09 00:50:19;;;;;;;8.40;7.60;;;13.40;37.00;;;;;;5012220;28;20246;-69
2023/06/09 00:52:46;;;;;;;9.70;7.03;;;13.40;37.60;;;;;;5012111;28;20422;-69
2023/06/09 00:55:12;;;;;;;9.13;7.13;;;13.40;38.40;;;;;;5012005;28;20438;-69
2023/06/09 00:57:39;;;;;;;8.27;7.47;;;13.30;38.70;;;;;;5010999;28;20894;-69
2023/06/09 01:00:06;;;;;;;8.67;7.77;;;13.20;39.00;;;;;;5012069;28;20428;-69
2023/06/09 01:02:38;;;;;;;9.17;8.20;;;13.20;39.60;;;;;;5011578;28;20419;-69
2023/06/09 01:05:05;;;;;;;8.63;7.70;;;13.20;40.40;;;;;;5012015;28;20447;-69
2023/06/09 01:07:50;;;;;;;8.30;7.00;;;13.20;40.10;;;;;;5011789;28;20422;-69
2023/06/09 01:10:21;;;;;;;8.20;6.70;;;13.20;40.80;;;;;;5011642;28;20419;-69
2023/06/09 01:12:59;;;;;;;8.73;7.83;;;13.20;41.50;;;;;;5011782;28;20571;-69
2023/06/09 01:15:31;;;;;;;8.60;7.70;;;13.20;42.40;;;;;;5011468;28;20450;-69
2023/06/09 01:18:02;;;;;;;7.83;7.03;;;13.10;43.50;;;;;;5011931;28;20438;-69
2023/06/09 01:20:53;;;;;;;10.40;9.30;;;13.10;44.10;;;;;;5011921;28;20474;-69
2023/06/09 01:23:44;;;;;;;9.43;8.53;;;13.10;43.30;;;;;;5011630;28;20411;-70
2023/06/09 01:26:11;;;;;;;8.53;6.57;;;13.00;44.00;;;;;;5011900;28;20425;-70
2023/06/09 01:28:38;;;;;;;7.47;6.60;;;13.00;44.00;;;;;;5011539;28;20542;-70
2023/06/09 01:31:04;;;;;;;9.37;7.30;;;13.00;44.30;;;;;;5012017;28;20426;-70
2023/06/09 01:33:30;;;;;;;9.13;6.77;;;12.90;45.60;;;;;;5010170;28;20461;-70
2023/06/09 01:35:57;;;;;;;8.80;7.70;;;12.90;45.80;;;;;;5011705;28;20458;-70
2023/06/09 01:38:24;;;;;;;11.20;9.40;;;12.80;45.40;;;;;;5011819;28;20415;-70
2023/06/09 01:40:50;;;;;;;9.63;8.23;;;12.80;47.40;;;;;;5010269;28;20463;-70
2023/06/09 01:43:16;;;;;;;9.60;8.60;;;12.80;47.10;;;;;;5010149;28;20426;-71
2023/06/09 01:45:42;;;;;;;9.90;7.63;;;12.80;46.80;;;;;;5011371;28;20508;-71
2023/06/09 01:48:34;;;;;;;7.90;6.27;;;12.80;46.70;;;;;;5013571;28;20414;-71
2023/06/09 01:51:10;;;;;;;8.33;7.03;;;12.80;46.60;;;;;;5012668;28;20182;-71
2023/06/09 01:53:38;;;;;;;8.13;7.30;;;12.70;48.40;;;;;;5015038;28;20428;-71
2023/06/09 01:56:25;;;;;;;10.50;9.13;;;12.70;48.40;;;;;;5016854;28;20476;-70
2023/06/09 01:58:55;;;;;;;9.10;7.93;;;12.70;48.30;;;;;;5015443;28;20419;-70
2023/06/09 02:01:23;;;;;;;11.20;9.30;;;12.70;50.10;;;;;;5015292;28;20477;-70
2023/06/09 02:03:52;;;;;;;9.90;7.90;;;12.60;51.00;;;;;;5014917;28;20423;-71
2023/06/09 02:06:19;;;;;;;9.20;8.00;;;12.60;49.90;;;;;;5015595;28;20411;-70
2023/06/09 02:08:45;;;;;;;9.73;7.73;;;12.50;51.60;;;;;;5015110;28;20877;-71
2023/06/09 02:11:11;;;;;;;8.47;7.57;;;12.60;53.20;;;;;;5015393;28;20942;-71
2023/06/09 02:13:36;;;;;;;11.77;9.27;;;12.60;52.70;;;;;;5014822;28;20422;-70
2023/06/09 02:16:02;;;;;;;10.40;8.43;;;12.50;53.60;;;;;;5016795;28;20197;-70
2023/06/09 02:18:28;;;;;;;9.20;7.63;;;12.50;53.60;;;;;;5014598;28;20203;-70
2023/06/09 02:20:53;;;;;;;15.13;9.87;;;12.40;55.00;;;;;;5015889;28;20304;-70
2023/06/09 02:23:21;;;;;;;10.70;8.80;;;12.40;55.10;;;;;;5015356;28;20305;-70
2023/06/09 02:25:47;;;;;;;11.17;9.07;;;12.40;56.40;;;;;;5015508;28;20202;-70
2023/06/09 02:28:13;;;;;;;10.70;9.57;;;12.40;56.90;;;;;;5014855;28;20784;-71
2023/06/09 02:30:39;;;;;;;14.63;9.40;;;12.40;56.70;;;;;;5015346;28;20468;-71
2023/06/09 02:33:05;;;;;;;8.77;7.87;;;12.40;57.20;;;;;;5014387;28;20411;-70
2023/06/09 02:35:31;;;;;;;8.50;7.70;;;12.40;58.80;;;;;;5014998;28;20595;-70
2023/06/09 02:37:57;;;;;;;9.50;8.37;;;12.40;58.90;;;;;;5014635;28;20422;-70
2023/06/09 02:40:26;;;;;;;9.27;8.00;;;12.40;61.20;;;;;;5014503;28;20450;-70
2023/06/09 02:42:51;;;;;;;9.03;6.80;;;12.40;63.00;;;;;;5014676;28;20407;-70
2023/06/09 02:45:17;;;;;;;10.60;7.93;;;12.30;63.30;;;;;;5014765;28;20437;-70
2023/06/09 02:47:42;;;;;;;9.30;8.33;;;12.20;63.60;;;;;;5014442;28;20196;-70
2023/06/09 02:50:08;;;;;;;10.73;8.53;;;12.20;65.40;;;;;;5014679;28;20718;-70
2023/06/09 02:52:34;;;;;;;8.87;7.93;;;12.20;64.80;;;;;;5014138;28;20202;-71
2023/06/09 02:55:00;;;;;;;9.87;8.97;;;12.20;65.90;;;;;;5014269;28;20427;-70
2023/06/09 02:57:26;;;;;;;11.63;8.23;;;12.30;66.50;;;;;;5014359;28;20180;-70
2023/06/09 02:59:52;;;;;;;9.50;6.87;;;12.30;53.40;;;;;;5014365;28;20589;-71
2023/06/09 03:02:18;;;;;;;8.53;7.63;;;12.20;52.00;;;;;;5011585;28;20466;-70
2023/06/09 03:04:43;;;;;;;11.67;9.03;;;12.20;51.30;;;;;;5015157;28;20202;-70
2023/06/09 03:07:13;;;;;;;10.60;7.97;;;12.20;50.10;;;;;;5013121;28;20242;-71
2023/06/09 03:09:39;;;;;;;9.03;8.10;;;12.20;48.50;;;;;;5014299;28;20310;-71
2023/06/09 03:12:06;;;;;;;10.23;8.50;;;12.20;49.10;;;;;;5013859;28;20450;-70
2023/06/09 03:14:32;;;;;;;10.30;8.40;;;12.20;47.70;;;;;;5013778;28;20442;-70
2023/06/09 03:16:58;;;;;;;10.10;9.03;;;12.20;48.70;;;;;;5013833;28;20434;-70
2023/06/09 03:19:24;;;;;;;9.30;8.30;;;12.10;47.80;;;;;;5014066;28;20419;-71
2023/06/09 03:21:52;;;;;;;8.83;7.93;;;12.20;47.50;;;;;;5013860;28;20458;-71
2023/06/09 03:24:19;;;;;;;10.13;9.13;;;12.10;47.60;;;;;;5012794;28;20449;-71
2023/06/09 03:26:45;;;;;;;11.10;9.83;;;12.10;48.30;;;;;;5013968;28;20422;-71
2023/06/09 03:29:11;;;;;;;11.80;9.03;;;12.10;48.20;;;;;;5013914;28;20418;-70
2023/06/09 03:31:36;;;;;;;10.10;8.40;;;12.10;47.20;;;;;;5013510;28;20888;-71
2023/06/09 03:34:02;;;;;;;13.90;10.23;;;12.00;45.60;;;;;;5012286;28;20879;-71
2023/06/09 03:36:28;;;;;;;12.40;9.03;;;12.00;47.00;;;;;;5014213;28;20265;-71
2023/06/09 03:38:54;;;;;;;15.40;10.10;;;12.00;45.80;;;;;;5012754;28;20271;-71
2023/06/09 03:41:21;;;;;;;9.57;7.77;;;12.00;45.20;;;;;;5013680;28;20898;-71
2023/06/09 03:43:47;;;;;;;9.33;8.43;;;12.00;45.50;;;;;;5014002;28;20256;-70
2023/06/09 03:46:12;;;;;;;10.97;8.60;;;12.00;45.30;;;;;;5012241;28;20427;-71
2023/06/09 03:48:39;;;;;;;11.30;8.83;;;11.90;44.50;;;;;;5014088;28;20176;-71
2023/06/09 03:51:06;;;;;;;10.60;7.77;;;11.90;45.50;;;;;;5014105;28;20415;-71
2023/06/09 03:53:31;;;;;;;8.60;7.70;;;12.00;44.90;;;;;;5012692;28;21164;-71
2023/06/09 03:55:58;;;;;;;12.10;9.87;;;12.10;44.10;;;;;;5013601;28;20476;-70
2023/06/09 03:58:25;;;;;;;9.73;8.73;;;12.10;43.20;;;;;;5012867;28;20696;-70
2023/06/09 04:00:51;;;;;;;9.53;8.63;;;12.20;43.30;;;;;;5013062;28;20501;-70
2023/06/09 04:03:18;;;;;;;9.17;7.90;;;12.20;43.30;;;;;;5013665;28;20423;-70
2023/06/09 04:05:43;;;;;;;10.63;8.60;;;12.20;42.40;;;;;;5013741;28;20452;-70
2023/06/09 04:08:10;;;;;;;9.93;8.13;;;12.30;42.70;;;;;;5013324;28;20907;-69
2023/06/09 04:10:36;;;;;;;8.70;7.70;;;12.30;42.10;;;;;;5012762;28;20543;-71
2023/06/09 04:13:01;;;;;;;8.20;7.37;;;12.30;43.30;;;;;;5013016;28;20490;-68
2023/06/09 04:15:27;;;;;;;8.90;7.70;;;12.40;41.50;;;;;;5012957;28;20196;-68
2023/06/09 04:17:53;;;;;;;8.47;7.67;;;12.50;41.90;;;;;;5013060;28;20605;-68
2023/06/09 04:20:22;;;;;;;9.03;6.97;;;12.50;41.50;;;;;;5012905;28;20262;-68
2023/06/09 04:22:49;;;;;;;8.50;7.60;;;12.50;41.80;;;;;;5012811;28;20481;-68
2023/06/09 04:25:16;;;;;;;10.17;8.87;;;12.50;41.20;;;;;;5014655;28;20437;-67
2023/06/09 04:27:42;;;;;;;11.03;9.37;;;12.60;41.30;;;;;;5013961;28;20798;-69
2023/06/09 04:30:11;;;;;;;10.57;9.30;;;12.70;40.90;;;;;;5014254;28;20423;-68
2023/06/09 04:32:37;;;;;;;11.60;8.90;;;12.80;40.90;;;;;;5013994;28;20594;-69
2023/06/09 04:35:03;;;;;;;11.37;9.47;;;12.90;39.70;;;;;;5029732;23;20517;-68
2023/06/09 04:37:29;;;;;;;12.70;11.20;;;12.90;38.70;;;;;;5021331;28;20187;-69
2023/06/09 04:39:55;;;;;;;10.80;9.70;;;12.90;38.10;;;;;;5020059;28;20407;-68
2023/06/09 04:42:22;;;;;;;12.20;10.90;;;13.00;38.40;;;;;;5020062;28;20222;-69
2023/06/09 04:44:48;;;;;;;13.50;10.83;;;13.00;38.80;;;;;;5019178;28;20223;-70
2023/06/09 04:47:17;;;;;;;11.33;10.13;;;13.10;37.90;;;;;;5021273;28;20415;-70
2023/06/09 04:49:46;;;;;;;10.70;9.37;;;13.30;37.40;;;;;;5022288;28;20768;-70
2023/06/09 04:52:12;;;;;;;15.30;11.03;;;13.50;35.40;;;;;;5021927;28;20431;-70
2023/06/09 04:54:38;;;;;;;11.77;9.10;;;13.60;34.10;;;;;;5023106;28;20453;-70
2023/06/09 04:57:08;;;;;;;10.97;7.80;;;13.70;33.80;;;;;;5023912;28;20462;-70
2023/06/09 04:59:33;;;;;;;12.10;10.33;;;13.80;31.20;;;;;;5023187;28;20182;-70
2023/06/09 05:01:59;;;;;;;11.50;9.77;;;13.90;31.10;;;;;;5024894;28;20536;-70
2023/06/09 05:04:25;;;;;;;13.20;9.50;;;14.00;29.90;;;;;;5023648;28;20199;-70
2023/06/09 05:06:51;;;;;;;12.23;10.93;;;14.10;29.50;;;;;;5022516;28;20169;-69
2023/06/09 05:09:16;;;;;;;9.47;8.50;;;14.10;30.00;;;;;;5020735;28;20191;-71
2023/06/09 05:11:42;;;;;;;13.07;9.90;;;14.30;29.70;;;;;;5023246;28;20418;-70
2023/06/09 05:14:11;;;;;;;12.53;11.33;;;14.40;27.60;;;;;;5023639;28;20177;-69
2023/06/09 05:16:37;;;;;;;11.43;9.63;;;14.40;28.70;;;;;;5022608;28;20460;-71
2023/06/09 05:19:03;;;;;;;13.00;10.83;;;14.40;27.50;;;;;;5022559;28;20565;-70
2023/06/09 05:21:28;;;;;;;11.13;10.00;;;14.60;26.70;;;;;;5022927;28;20496;-69
2023/06/09 05:23:54;;;;;;;11.73;10.30;;;14.60;26.30;;;;;;5023407;28;20168;-69
2023/06/09 05:26:21;;;;;;;14.20;10.63;;;14.60;25.80;;;;;;5022399;28;20196;-69
2023/06/09 05:28:47;;;;;;;12.57;11.27;;;14.70;25.80;;;;;;5022190;28;20294;-69
2023/06/09 05:31:13;;;;;;;10.20;9.10;;;14.90;25.80;;;;;;5021336;28;20427;-70
2023/06/09 05:33:39;;;;;;;12.33;9.33;;;15.10;24.40;;;;;;5020544;28;20423;-69
2023/06/09 05:36:06;;;;;;;10.80;9.07;;;15.20;24.70;;;;;;5017062;28;20512;-69
2023/06/09 05:38:31;;;;;;;10.60;9.50;;;15.30;23.60;;;;;;5017496;28;20422;-72
2023/06/09 05:40:57;;;;;;;10.37;9.37;;;15.60;22.50;;;;;;5015577;28;20485;-71
2023/06/09 05:43:27;;;;;;;11.53;9.80;;;16.10;21.30;;;;;;5014838;28;20257;-70
2023/06/09 05:45:53;;;;;;;11.00;9.60;;;16.40;18.50;;;;;;5015825;28;20531;-71
2023/06/09 05:48:18;;;;;;;9.80;8.93;;;16.60;17.90;;;;;;5017526;28;20496;-70
2023/06/09 05:50:45;;;;;;;9.77;7.50;;;16.90;16.40;;;;;;5016079;28;20183;-70
2023/06/09 05:53:11;;;;;;;8.83;7.93;;;17.50;14.80;;;;;;5017905;28;20180;-71
2023/06/09 05:55:40;;;;;;;9.03;8.17;;;19.20;10.40;;;;;;5018226;28;20493;-71
2023/06/09 05:58:06;;;;;;;11.60;9.67;;;20.80;5.80;;;;;;5016353;28;20183;-71
2023/06/09 06:00:33;;;;;;;9.57;8.50;;;21.90;2.70;;;;;;5018674;28;20446;-71
2023/06/09 06:03:02;;;;;;;8.70;7.87;;;23.10;1.20;;;;;;5017442;28;20168;-70
2023/06/09 06:05:29;;;;;;;10.23;9.33;;;24.90;1.00;;;;;;5015279;28;20443;-70
2023/06/09 06:07:55;;;;;;;11.70;10.30;;;26.10;1.00;;;;;;5015145;28;20407;-70
2023/06/09 06:10:22;;;;;;;10.13;9.27;;;27.00;1.00;;;;;;5014767;28;20462;-70
2023/06/09 06:12:47;;;;;;;9.10;8.40;;;28.50;1.00;;;;;;5015258;28;20417;-70
2023/06/09 06:15:13;;;;;;;9.53;8.73;;;29.70;1.00;;;;;;5015316;28;20434;-71
2023/06/09 06:17:38;;;;;;;9.30;8.57;;;30.60;1.00;;;;;;5016055;28;20179;-71
2023/06/09 06:20:05;;;;;;;10.57;9.63;;;31.70;1.00;;;;;;5013180;28;20275;-71
2023/06/09 06:22:31;;;;;;;10.10;9.27;;;32.90;1.00;;;;;;5014350;28;20172;-71
2023/06/09 06:24:57;;;;;;;11.30;10.33;;;33.90;1.00;;;;;;5014057;28;20438;-71
2023/06/09 06:27:23;;;;;;;9.90;9.00;;;33.50;1.00;;;;;;5015164;28;20657;-72
2023/06/09 06:29:48;;;;;;;10.33;9.43;;;34.20;1.00;;;;;;5014534;28;20407;-70
2023/06/09 06:32:14;;;;;;;9.50;8.70;;;35.00;1.00;;;;;;5013414;28;20184;-70
2023/06/09 06:34:40;;;;;;;9.37;8.67;;;35.70;1.00;;;;;;5027527;28;20223;-70
2023/06/09 06:37:06;;;;;;;8.97;8.37;;;36.30;1.00;;;;;;5031555;28;20222;-70
2023/06/09 06:39:31;;;;;;;9.00;8.40;;;36.70;1.00;;;;;;5033109;28;20454;-71
2023/06/09 06:41:57;;;;;;;9.47;8.77;;;36.00;1.00;;;;;;5034117;28;20265;-70
2023/06/09 06:44:23;;;;;;;9.00;8.20;;;36.40;1.00;;;;;;5032845;28;20263;-70
2023/06/09 06:46:48;;;;;;;9.83;8.90;;;35.30;1.00;;;;;;5036190;28;20188;-70
2023/06/09 06:49:14;;;;;;;8.50;7.90;;;35.90;1.00;;;;;;5023044;28;20194;-70
2023/06/09 06:51:40;;;;;;;9.20;8.40;;;36.90;1.00;;;;;;5043756;28;20214;-70
2023/06/09 06:54:06;;;;;;;9.67;8.90;;;36.50;1.00;;;;;;5025051;28;20199;-70
2023/06/09 06:56:31;;;;;;;8.80;8.20;;;37.80;1.00;;;;;;5018904;28;20423;-69
2023/06/09 06:58:57;;;;;;;7.87;7.37;;;36.40;1.00;;;;;;5018981;28;20188;-70
2023/06/09 07:01:24;;;;;;;8.57;7.87;;;35.40;1.00;;;;;;5016800;28;20208;-70
2023/06/09 07:03:50;;;;;;;8.30;7.80;;;35.90;1.00;;;;;;5036530;28;20184;-70
2023/06/09 07:06:16;;;;;;;9.00;8.27;;;35.10;1.00;;;;;;5030879;28;20964;-71
2023/06/09 07:08:42;;;;;;;8.17;7.47;;;35.60;1.00;;;;;;5029238;28;20984;-71
2023/06/09 07:11:08;;;;;;;8.50;7.80;;;36.30;1.00;;;;;;5029118;28;20541;-70
2023/06/09 07:13:34;;;;;;;7.80;7.20;;;35.80;1.00;;;;;;5029614;28;20445;-70
2023/06/09 07:16:00;;;;;;;8.43;7.73;;;36.10;1.00;;;;;;5028944;28;20976;-71
2023/06/09 07:18:26;;;;;;;8.13;7.53;;;36.70;1.00;;;;;;5030118;28;20656;-70
2023/06/09 07:20:52;;;;;;;7.97;7.37;;;36.40;1.00;;;;;;5031338;28;20207;-71
2023/06/09 07:23:17;;;;;;;9.20;8.30;;;37.00;1.00;;;;;;5034590;28;20414;-70
2023/06/09 07:25:46;;;;;;;7.63;7.03;;;37.30;1.00;;;;;;5034980;28;20240;-74
2023/06/09 07:28:11;;;;;;;8.10;7.50;;;36.50;1.00;;;;;;5041497;28;20175;-67
2023/06/09 07:30:41;;;;;;;7.13;6.43;;;36.80;1.00;;;;;;5027659;28;20899;-68
2023/06/09 07:33:07;;;;;;;10.87;8.30;;;36.90;1.00;;;;;;5026440;28;20180;-69
2023/06/09 07:35:33;;;;;;;7.53;7.03;;;37.50;1.00;;;;;;5025297;28;20663;-70
2023/06/09 07:37:58;;;;;;;8.07;7.47;;;37.60;1.00;;;;;;5023383;28;20510;-68
2023/06/09 07:40:24;;;;;;;7.67;6.90;;;37.80;1.00;;;;;;5019843;28;20192;-69
2023/06/09 07:42:50;;;;;;;7.10;6.60;;;37.40;1.00;;;;;;5004877;28;20223;-68
2023/06/09 07:45:18;;;;;;;9.57;6.87;;;36.10;1.00;;;;;;5007825;28;20200;-69
2023/06/09 07:47:44;;;;;;;7.70;7.20;;;37.00;1.00;;;;;;5009110;28;20177;-68
2023/06/09 07:50:10;;;;;;;7.77;7.07;;;36.50;1.00;;;;;;5008698;28;20443;-68
2023/06/09 07:52:39;;;;;;;7.47;6.97;;;37.50;1.00;;;;;;5009894;28;20416;-69
2023/06/09 07:55:09;;;;;;;8.37;7.67;;;37.20;1.00;;;;;;5009943;28;20193;-68
2023/06/09 07:57:35;;;;;;;8.70;8.00;;;36.40;1.00;;;;;;5011466;28;20438;-68
2023/06/09 08:00:01;;;;;;;8.27;7.57;;;37.20;1.00;;;;;;5009457;28;20420;-68
2023/06/09 08:02:28;;;;;;;7.10;6.60;;;36.60;1.00;;;;;;5010565;28;20223;-67
2023/06/09 08:04:53;;;;;;;8.00;7.50;;;36.80;1.00;;;;;;5010588;28;20494;-69
2023/06/09 08:07:19;;;;;;;6.97;6.50;;;36.80;1.00;;;;;;5009755;28;20431;-69
2023/06/09 08:09:44;;;;;;;7.53;7.03;;;37.80;1.00;;;;;;5009812;28;20183;-67
2023/06/09 08:12:11;;;;;;;8.37;7.67;;;37.80;1.00;;;;;;5011028;28;20181;-68
2023/06/09 08:14:37;;;;;;;8.77;8.17;;;39.10;1.00;;;;;;5010058;28;20231;-69
2023/06/09 08:17:02;;;;;;;7.93;7.43;;;40.70;1.00;;;;;;5010812;28;20432;-69
2023/06/09 08:19:28;;;;;;;7.47;6.87;;;40.30;1.00;;;;;;5010986;28;20316;-69
2023/06/09 08:21:54;;;;;;;7.63;7.13;;;39.60;1.00;;;;;;5010052;28;20209;-69
2023/06/09 08:24:20;;;;;;;7.43;6.83;;;39.30;1.00;;;;;;5010001;28;20169;-69
2023/06/09 08:26:48;;;;;;;6.67;6.27;;;39.40;1.00;;;;;;5025027;28;20520;-70
2023/06/09 08:29:15;;;;;;;8.33;6.80;;;40.10;1.00;;;;;;5007210;28;20522;-69
2023/06/09 08:31:41;;;;;;;6.90;6.40;;;39.90;1.00;;;;;;5022293;28;20444;-70
2023/06/09 08:34:07;;;;;;;7.37;6.87;;;39.40;1.00;;;;;;5009017;28;20415;-69
2023/06/09 08:36:33;;;;;;;7.53;6.90;;;40.00;1.00;;;;;;5008773;28;20980;-70
2023/06/09 08:38:58;;;;;;;7.13;6.53;;;39.50;1.00;;;;;;5025086;28;20250;-69
2023/06/09 08:41:27;;;;;;;6.90;6.40;;;39.10;1.00;;;;;;5048084;28;20238;-69
2023/06/09 08:43:53;;;;;;;7.80;7.30;;;38.40;1.00;;;;;;5049858;28;20194;-69
2023/06/09 08:46:21;;;;;;;6.90;6.40;;;37.30;1.00;;;;;;5049508;28;20497;-70
2023/06/09 08:48:55;;;;;;;7.33;6.73;;;37.80;1.00;;;;;;5048666;28;20175;-69
2023/06/09 08:51:21;;;;;;;7.57;6.97;;;38.00;1.00;;;;;;5048993;28;20409;-69
2023/06/09 08:53:52;;;;;;;7.40;6.90;;;38.30;1.00;;;;;;5048924;28;20414;-70
2023/06/09 08:56:18;;;;;;;8.00;7.40;;;38.70;1.00;;;;;;5048583;28;20238;-70
2023/06/09 08:58:48;;;;;;;7.03;6.53;;;39.00;1.00;;;;;;5048740;28;20422;-69
2023/06/09 09:01:17;;;;;;;7.03;6.53;;;39.40;1.00;;;;;;5047809;28;20458;-70
2023/06/09 09:03:48;;;;;;;7.07;6.57;;;40.60;1.00;;;;;;5047144;28;20426;-69
2023/06/09 09:06:15;;;;;;;5.83;5.43;;;41.30;1.00;;;;;;5047475;28;20440;-69
2023/06/09 09:08:41;;;;;;;5.90;5.50;;;38.90;1.00;;;;;;5048451;28;20426;-69
2023/06/09 09:11:06;;;;;;;7.20;6.60;;;40.30;1.00;;;;;;5047280;28;20437;-70
2023/06/09 09:13:32;;;;;;;5.93;5.53;;;40.70;1.00;;;;;;5047672;28;20452;-68
2023/06/09 09:16:00;;;;;;;7.23;6.70;;;39.50;1.00;;;;;;5046415;28;20275;-70
2023/06/09 09:18:34;;;;;;;6.07;5.57;;;38.00;1.00;;;;;;5040235;28;20175;-68
2023/06/09 09:21:01;;;;;;;5.90;5.40;;;34.80;1.00;;;;;;5038350;28;20457;-68
2023/06/09 09:23:31;;;;;;;5.70;5.30;;;32.80;1.00;;;;;;5039887;28;20414;-67
2023/06/09 09:25:59;;;;;;;6.30;5.90;;;31.10;1.00;;;;;;5042104;28;20426;-68
2023/06/09 09:28:25;;;;;;;7.53;6.63;;;30.10;1.00;;;;;;5044135;28;20417;-67
2023/06/09 09:30:54;;;;;;;7.27;6.70;;;29.10;1.00;;;;;;5036161;28;20418;-68
2023/06/09 09:33:22;;;;;;;6.33;5.93;;;28.80;1.00;;;;;;5030925;28;20973;-67
2023/06/09 09:35:58;;;;;;;7.20;6.60;;;27.90;1.00;;;;;;5031042;28;20461;-67
2023/06/09 09:38:28;;;;;;;7.10;6.60;;;27.30;1.00;;;;;;5028709;28;20509;-68
2023/06/09 09:40:57;;;;;;;6.33;5.83;;;27.00;1.00;;;;;;5013510;28;20453;-68
2023/06/09 09:43:27;;;;;;;6.80;6.30;;;27.10;1.00;;;;;;5015002;28;20431;-69
2023/06/09 09:45:54;;;;;;;6.17;5.67;;;26.90;1.00;;;;;;5014958;28;20944;-68
2023/06/09 09:48:22;;;;;;;7.20;6.70;;;27.00;1.00;;;;;;5013739;28;20836;-68
2023/06/09 09:50:53;;;;;;;6.67;6.10;;;27.00;1.00;;;;;;5016870;28;20425;-68
2023/06/09 09:53:26;;;;;;;8.73;6.23;;;27.10;1.00;;;;;;5017979;28;20411;-70
2023/06/09 09:55:58;;;;;;;6.30;5.90;;;27.10;1.00;;;;;;5016078;28;20445;-67
2023/06/09 09:58:36;;;;;;;5.53;5.07;;;27.10;1.00;;;;;;5019615;28;20419;-66
2023/06/09 10:01:04;;;;;;;6.30;5.90;;;27.20;1.00;;;;;;5014911;28;20971;-69
2023/06/09 10:03:30;;;;;;;6.30;5.73;;;27.30;1.00;;;;;;5018504;28;20422;-68
2023/06/09 10:05:57;;;;;;;5.50;5.10;;;27.40;1.00;;;;;;5017289;28;20449;-67
2023/06/09 10:08:27;;;;;;;5.97;5.47;;;27.50;1.00;;;;;;5015411;28;20502;-69
2023/06/09 10:10:56;;;;;;;5.80;5.40;;;27.70;1.00;;;;;;5017142;28;20457;-70
2023/06/09 10:13:22;;;;;;;6.43;6.00;;;27.70;1.00;;;;;;5029347;28;20422;-67
2023/06/09 10:15:50;;;;;;;6.50;6.00;;;27.70;1.00;;;;;;5041696;28;20845;-69
2023/06/09 10:18:16;;;;;;;5.37;5.07;;;27.40;1.00;;;;;;5024646;28;20457;-68
2023/06/09 10:20:44;;;;;;;5.87;5.40;;;27.60;1.00;;;;;;5021544;28;20446;-71
2023/06/09 10:23:09;;;;;;;6.60;6.13;;;27.90;1.00;;;;;;5021718;28;20419;-69
2023/06/09 10:25:35;;;;;;;6.30;5.80;;;28.20;1.00;;;;;;5022769;28;20805;-69
2023/06/09 10:28:01;;;;;;;8.30;6.60;;;28.40;1.00;;;;;;5024057;28;20665;-67
2023/06/09 10:30:27;;;;;;;6.20;5.80;;;28.50;1.00;;;;;;5024012;28;20534;-68
2023/06/09 10:33:05;;;;;;;6.37;5.87;;;28.50;1.00;;;;;;5020992;28;20184;-69
2023/06/09 10:35:34;;;;;;;6.27;5.77;;;28.70;1.00;;;;;;5033996;23;20266;-69
2023/06/09 10:38:29;;;;;;;6.43;5.93;;;28.60;1.00;;;;;;4996441;28;20472;-69
2023/06/09 10:41:28;;;;;;;5.50;5.20;;;28.80;1.00;;;;;;4996743;28;20485;-69
2023/06/09 10:44:16;;;;;;;5.83;5.43;;;28.70;1.00;;;;;;4998326;28;20411;-70
2023/06/09 10:46:50;;;;;;;7.40;6.87;;;28.70;1.00;;;;;;5012795;28;20440;-69
2023/06/09 10:49:35;;;;;;;6.00;5.60;;;28.60;1.00;;;;;;5000401;28;20830;-69
2023/06/09 10:52:01;;;;;;;6.47;5.80;;;28.20;1.00;;;;;;4996706;28;20412;-69
2023/06/09 10:54:28;;;;;;;6.60;6.20;;;28.10;1.00;;;;;;4996930;28;20416;-69
2023/06/09 10:56:56;;;;;;;5.90;5.50;;;28.20;1.00;;;;;;4996561;28;20443;-67
2023/06/09 10:59:25;;;;;;;7.60;6.83;;;28.10;1.00;;;;;;4996630;28;20423;-67
2023/06/09 11:01:59;;;;;;;7.10;6.60;;;27.90;1.00;;;;;;4995332;28;20478;-73
2023/06/09 11:04:49;;;;;;;5.47;5.07;;;28.10;1.00;;;;;;4995743;28;20427;-68
2023/06/09 11:07:17;;;;;;;6.90;6.30;;;28.30;1.00;;;;;;4995788;28;20412;-69
2023/06/09 11:10:03;;;;;;;15.77;8.67;;;28.60;1.00;;;;;;4995052;28;20408;-71
2023/06/09 11:12:42;;;;;;;5.50;5.10;;;28.90;1.00;;;;;;4979782;28;20764;-70
2023/06/09 11:15:10;;;;;;;7.43;6.83;;;29.10;1.00;;;;;;4994830;28;20424;-69
2023/06/09 11:17:44;;;;;;;6.63;6.13;;;29.00;1.00;;;;;;4994442;28;20419;-68
2023/06/09 11:20:09;;;;;;;6.43;6.03;;;29.30;1.00;;;;;;4993426;28;20427;-70
2023/06/09 11:22:59;;;;;;;6.70;6.10;;;29.50;1.00;;;;;;4993892;28;20537;-72
2023/06/09 11:25:33;;;;;;;5.90;5.50;;;29.40;1.00;;;;;;4994637;28;20628;-70
2023/06/09 11:27:59;;;;;;;6.27;5.87;;;29.10;1.00;;;;;;4993370;28;20463;-70
2023/06/09 11:30:29;;;;;;;8.00;5.80;;;29.00;1.00;;;;;;4994622;28;20458;-70
2023/06/09 11:33:04;;;;;;;5.93;5.53;;;28.80;1.00;;;;;;4992987;28;20184;-69
2023/06/09 11:35:29;;;;;;;6.47;5.97;;;28.60;1.00;;;;;;4994438;28;20466;-69
2023/06/09 11:38:05;;;;;;;6.50;6.00;;;28.70;1.00;;;;;;4993413;28;20489;-70
2023/06/09 11:40:32;;;;;;;9.10;5.70;;;28.90;1.00;;;;;;4994456;28;20168;-70
2023/06/09 11:42:59;;;;;;;6.50;6.10;;;29.00;1.00;;;;;;4992764;28;20473;-70
2023/06/09 11:45:30;;;;;;;6.17;5.70;;;28.80;1.00;;;;;;4994121;28;20436;-70
2023/06/09 11:47:59;;;;;;;5.97;5.57;;;28.20;1.00;;;;;;4993119;28;20809;-70
2023/06/09 11:50:27;;;;;;;5.97;5.47;;;27.80;1.00;;;;;;4992837;28;20467;-71
2023/06/09 11:53:13;;;;;;;6.60;6.10;;;27.60;1.00;;;;;;4992670;28;20427;-70
2023/06/09 11:55:38;;;;;;;5.80;5.40;;;27.40;1.00;;;;;;4986027;28;20443;-70
2023/06/09 11:58:08;;;;;;;6.13;5.70;;;27.30;1.00;;;;;;4979768;28;20424;-71
2023/06/09 12:00:38;;;;;;;6.20;5.60;;;27.10;1.00;;;;;;4973499;28;20185;-71
2023/06/09 12:03:05;;;;;;;6.80;6.20;;;27.00;1.00;;;;;;4974654;28;20499;-70
2023/06/09 12:05:31;;;;;;;6.00;5.50;;;26.80;1.00;;;;;;4976831;28;20538;-69
2023/06/09 12:07:56;;;;;;;6.60;6.20;;;26.80;1.00;;;;;;4994141;28;20513;-71
2023/06/09 12:10:27;;;;;;;6.40;6.00;;;26.60;1.00;;;;;;4992563;28;20187;-71
2023/06/09 12:12:56;;;;;;;6.07;5.67;;;26.60;1.00;;;;;;4992713;28;20933;-70
2023/06/09 12:15:22;;;;;;;6.30;5.80;;;26.50;1.00;;;;;;4992406;28;20443;-70
2023/06/09 12:17:50;;;;;;;8.23;6.23;;;26.50;1.00;;;;;;4993702;28;20442;-70
2023/06/09 12:20:28;;;;;;;6.07;5.47;;;26.80;1.00;;;;;;4992225;28;20948;-68
2023/06/09 12:22:56;;;;;;;5.00;4.70;;;26.90;1.00;;;;;;4992368;28;20420;-70
2023/06/09 12:25:26;;;;;;;6.23;5.73;;;26.90;1.00;;;;;;4993670;28;20511;-69
2023/06/09 12:28:19;;;;;;;6.23;5.83;;;26.70;1.00;;;;;;4993460;28;20939;-69
2023/06/09 12:30:50;;;;;;;6.20;5.83;;;26.60;1.00;;;;;;4983659;28;20511;-70
2023/06/09 12:33:20;;;;;;;6.30;5.83;;;26.80;1.00;;;;;;4993362;28;20388;-71
2023/06/09 12:35:48;;;;;;;5.33;5.03;;;27.20;1.00;;;;;;4992851;28;20466;-70
2023/06/09 12:38:15;;;;;;;8.03;6.50;;;27.50;1.00;;;;;;4992027;28;20428;-69
2023/06/09 12:40:54;;;;;;;6.20;5.73;;;27.60;1.00;;;;;;4993361;28;20458;-71
2023/06/09 12:43:27;;;;;;;6.13;5.73;;;27.60;1.00;;;;;;4995263;28;20407;-68
2023/06/09 12:45:54;;;;;;;5.97;5.57;;;27.60;1.00;;;;;;4994961;28;20452;-70
2023/06/09 12:48:20;;;;;;;6.10;5.60;;;27.70;1.00;;;;;;4993397;28;20448;-69
2023/06/09 12:50:46;;;;;;;5.80;5.23;;;27.80;1.00;;;;;;4993386;28;20428;-69
2023/06/09 12:53:13;;;;;;;6.50;6.00;;;27.90;1.00;;;;;;4991450;28;20191;-69
2023/06/09 12:55:40;;;;;;;6.23;5.63;;;28.10;1.00;;;;;;4986558;28;20625;-70